createdAt,value
2023-04-08T00:01:48.270Z,10.40
2023-04-08T00:04:15.059Z,10.40
2023-04-08T00:06:42.033Z,10.40
2023-04-08T00:09:08.729Z,10.40
2023-04-08T00:11:36.011Z,10.40
2023-04-08T00:14:04.207Z,10.40
2023-04-08T00:16:31.318Z,10.30
2023-04-08T00:18:57.938Z,10.30
2023-04-08T00:21:24.581Z,10.30
2023-04-08T00:23:51.202Z,10.30
2023-04-08T00:26:17.784Z,10.30
2023-04-08T00:28:45.155Z,10.30
2023-04-08T00:31:11.911Z,10.30
2023-04-08T00:33:38.598Z,10.30
2023-04-08T00:36:05.344Z,10.20
2023-04-08T00:38:32.042Z,10.20
2023-04-08T00:40:58.666Z,10.20
2023-04-08T00:43:25.324Z,10.20
2023-04-08T00:45:51.973Z,10.20
2023-04-08T00:48:18.684Z,10.20
2023-04-08T00:50:47.119Z,10.20
2023-04-08T00:53:20.303Z,10.20
2023-04-08T00:55:46.939Z,10.10
2023-04-08T00:58:14.477Z,10.20
2023-04-08T01:00:46.789Z,10.10
2023-04-08T01:03:24.740Z,10.10
2023-04-08T01:06:07.037Z,10.10
2023-04-08T01:08:38.599Z,10.10
2023-04-08T01:11:07.178Z,10.10
2023-04-08T01:13:39.051Z,10.10
2023-04-08T01:16:06.945Z,10.10
2023-04-08T01:18:36.718Z,10.10
2023-04-08T01:21:04.673Z,10.10
2023-04-08T01:23:40.886Z,10.10
2023-04-08T01:26:07.678Z,10.00
2023-04-08T01:28:37.029Z,10.00
2023-04-08T01:31:04.078Z,10.00
2023-04-08T01:33:31.603Z,10.00
2023-04-08T01:36:00.296Z,10.00
2023-04-08T01:38:29.308Z,10.00
2023-04-08T01:40:56.802Z,10.00
2023-04-08T01:43:24.682Z,10.00
2023-04-08T01:45:54.614Z,10.00
2023-04-08T01:48:22.253Z,10.00
2023-04-08T01:50:51.290Z,10.00
2023-04-08T01:53:18.019Z,9.90
2023-04-08T01:55:46.044Z,9.90
2023-04-08T01:58:19.373Z,9.90
2023-04-08T02:00:47.295Z,9.90
2023-04-08T02:03:17.629Z,9.90
2023-04-08T02:05:44.432Z,9.90
2023-04-08T02:08:12.288Z,9.90
2023-04-08T02:10:38.931Z,9.90
2023-04-08T02:13:05.995Z,9.90
2023-04-08T02:15:41.126Z,9.90
2023-04-08T02:18:17.359Z,9.90
2023-04-08T02:20:50.328Z,9.90
2023-04-08T02:23:22.752Z,9.90
2023-04-08T02:25:50.524Z,9.90
2023-04-08T02:28:19.843Z,9.90
2023-04-08T02:30:52.241Z,9.90
2023-04-08T02:33:23.016Z,9.90
2023-04-08T02:35:54.986Z,9.90
2023-04-08T02:38:24.021Z,9.90
2023-04-08T02:40:51.613Z,9.80
2023-04-08T02:43:18.521Z,9.80
2023-04-08T02:45:46.085Z,9.80
2023-04-08T02:48:12.733Z,9.80
2023-04-08T02:50:40.098Z,9.80
2023-04-08T02:53:06.721Z,9.80
2023-04-08T02:55:33.588Z,9.80
2023-04-08T02:58:00.392Z,9.80
2023-04-08T03:00:27.296Z,9.80
2023-04-08T03:02:54.273Z,9.80
2023-04-08T03:05:21.841Z,9.80
2023-04-08T03:07:48.564Z,9.80
2023-04-08T03:10:15.670Z,9.80
2023-04-08T03:12:42.212Z,9.80
2023-04-08T03:15:09.050Z,9.80
2023-04-08T03:17:35.702Z,9.80
2023-04-08T03:20:05.192Z,9.80
2023-04-08T03:22:31.983Z,9.80
2023-04-08T03:24:58.728Z,9.80
2023-04-08T03:27:25.880Z,9.70
2023-04-08T03:29:53.217Z,9.70
2023-04-08T03:32:20.360Z,9.70
2023-04-08T03:34:47.028Z,9.70
2023-04-08T03:37:13.589Z,9.70
2023-04-08T03:39:40.454Z,9.70
2023-04-08T03:42:07.088Z,9.70
2023-04-08T03:44:33.654Z,9.70
2023-04-08T03:47:00.271Z,9.70
2023-04-08T03:49:26.831Z,9.70
2023-04-08T03:51:53.467Z,9.70
2023-04-08T03:54:20.137Z,9.70
2023-04-08T03:56:46.784Z,9.70
2023-04-08T03:59:13.381Z,9.70
2023-04-08T04:01:41.372Z,9.70
2023-04-08T04:04:08.811Z,9.70
2023-04-08T04:06:35.803Z,9.70
2023-04-08T04:09:02.432Z,9.70
2023-04-08T04:11:29.220Z,9.70
2023-04-08T04:13:55.889Z,9.70
2023-04-08T04:16:22.781Z,9.70
2023-04-08T04:18:49.808Z,9.70
2023-04-08T04:21:16.709Z,9.70
2023-04-08T04:23:43.313Z,9.70
2023-04-08T04:26:10.257Z,9.60
2023-04-08T04:28:37.203Z,9.60
2023-04-08T04:31:04.395Z,9.70
2023-04-08T04:33:31.787Z,9.60
2023-04-08T04:35:58.541Z,9.60
2023-04-08T04:38:25.212Z,9.60
2023-04-08T04:40:51.766Z,9.60
2023-04-08T04:43:18.372Z,9.60
2023-04-08T04:45:45.277Z,9.60
2023-04-08T04:48:11.909Z,9.60
2023-04-08T04:50:38.556Z,9.60
2023-04-08T04:53:05.534Z,9.60
2023-04-08T04:55:32.166Z,9.60
2023-04-08T04:57:58.731Z,9.60
2023-04-08T05:00:25.439Z,9.60
2023-04-08T05:02:52.157Z,9.60
2023-04-08T05:05:19.123Z,9.60
2023-04-08T05:07:45.971Z,9.60
2023-04-08T05:10:12.612Z,9.60
2023-04-08T05:12:39.315Z,9.60
2023-04-08T05:15:06.851Z,9.60
2023-04-08T05:17:33.582Z,9.60
2023-04-08T05:20:00.769Z,9.60
2023-04-08T05:22:27.479Z,9.50
2023-04-08T05:24:54.168Z,9.50
2023-04-08T05:27:21.772Z,9.50
2023-04-08T05:29:51.711Z,9.50
2023-04-08T05:32:18.484Z,9.50
2023-04-08T05:34:45.598Z,9.50
2023-04-08T05:37:12.947Z,9.50
2023-04-08T05:39:39.659Z,9.50
2023-04-08T05:42:06.330Z,9.50
2023-04-08T05:44:33.020Z,9.50
2023-04-08T05:47:00.548Z,9.50
2023-04-08T05:49:27.425Z,9.50
2023-04-08T05:51:54.128Z,9.50
2023-04-08T05:54:20.887Z,9.50
2023-04-08T05:56:48.991Z,9.50
2023-04-08T05:59:15.892Z,9.50
2023-04-08T06:01:42.729Z,9.50
2023-04-08T06:04:09.616Z,9.50
2023-04-08T06:06:39.336Z,9.50
2023-04-08T06:09:06.128Z,9.50
2023-04-08T06:11:32.993Z,9.50
2023-04-08T06:13:59.783Z,9.50
2023-04-08T06:16:26.854Z,9.50
2023-04-08T06:18:53.825Z,9.50
2023-04-08T06:21:21.630Z,9.50
2023-04-08T06:23:48.336Z,9.50
2023-04-08T06:26:15.304Z,9.50
2023-04-08T06:28:42.002Z,9.50
2023-04-08T06:31:08.635Z,9.60
2023-04-08T06:33:35.430Z,9.60
2023-04-08T06:36:06.718Z,9.60
2023-04-08T06:38:33.803Z,9.60
2023-04-08T06:41:07.158Z,9.60
2023-04-08T06:43:36.598Z,9.60
2023-04-08T06:46:03.442Z,9.60
2023-04-08T06:48:32.965Z,9.60
2023-04-08T06:51:01.457Z,9.60
2023-04-08T06:53:30.786Z,9.60
2023-04-08T06:55:57.493Z,9.60
2023-04-08T06:58:24.200Z,9.60
2023-04-08T07:00:50.986Z,9.70
2023-04-08T07:03:17.786Z,9.60
2023-04-08T07:05:44.718Z,9.70
2023-04-08T07:08:11.616Z,9.70
2023-04-08T07:10:38.247Z,9.70
2023-04-08T07:13:05.056Z,9.70
2023-04-08T07:15:31.847Z,9.80
2023-04-08T07:17:58.943Z,9.80
2023-04-08T07:20:26.373Z,9.80
2023-04-08T07:22:53.049Z,9.80
2023-04-08T07:25:19.802Z,9.80
2023-04-08T07:27:46.611Z,9.90
2023-04-08T07:30:13.324Z,9.90
2023-04-08T07:32:40.280Z,9.90
2023-04-08T07:35:07.362Z,10.00
2023-04-08T07:37:34.023Z,10.00
2023-04-08T07:40:00.887Z,10.00
2023-04-08T07:42:27.550Z,10.10
2023-04-08T07:44:54.386Z,10.10
2023-04-08T07:47:21.213Z,10.10
2023-04-08T07:49:48.461Z,10.20
2023-04-08T07:52:15.779Z,10.20
2023-04-08T07:54:42.463Z,10.20
2023-04-08T07:57:09.028Z,10.30
2023-04-08T07:59:36.226Z,10.30
2023-04-08T08:02:03.591Z,10.30
2023-04-08T08:04:30.520Z,10.30
2023-04-08T08:06:57.187Z,10.40
2023-04-08T08:09:23.976Z,10.40
2023-04-08T08:11:50.575Z,10.50
2023-04-08T08:14:17.242Z,10.50
2023-04-08T08:16:44.726Z,10.50
2023-04-08T08:19:12.472Z,10.60
2023-04-08T08:21:39.664Z,10.60
2023-04-08T08:24:07.151Z,10.60
2023-04-08T08:26:39.492Z,10.60
2023-04-08T08:29:08.806Z,10.60
2023-04-08T08:31:35.837Z,10.70
2023-04-08T08:34:02.904Z,10.80
2023-04-08T08:36:29.604Z,10.80
2023-04-08T08:38:56.496Z,10.90
2023-04-08T08:41:23.120Z,10.90
2023-04-08T08:43:50.196Z,10.90
2023-04-08T08:46:19.331Z,11.00
2023-04-08T08:48:46.456Z,11.00
2023-04-08T08:51:13.962Z,11.10
2023-04-08T08:53:49.764Z,11.10
2023-04-08T08:56:18.722Z,11.10
2023-04-08T08:58:47.656Z,11.10
2023-04-08T09:01:35.354Z,11.20
2023-04-08T09:04:15.840Z,11.20
2023-04-08T09:06:43.771Z,11.20
2023-04-08T09:09:10.651Z,11.30
2023-04-08T09:11:47.730Z,11.30
2023-04-08T09:14:19.066Z,11.30
2023-04-08T09:16:45.844Z,11.40
2023-04-08T09:19:13.489Z,11.40
2023-04-08T09:21:41.526Z,11.40
2023-04-08T09:24:09.306Z,11.50
2023-04-08T09:26:41.843Z,11.50
2023-04-08T09:29:25.007Z,11.50
2023-04-08T09:31:57.734Z,11.50
2023-04-08T09:34:26.219Z,11.60
2023-04-08T09:36:53.991Z,11.60
2023-04-08T09:39:20.994Z,11.70
2023-04-08T09:41:51.831Z,11.80
2023-04-08T09:44:23.798Z,11.90
2023-04-08T09:46:50.422Z,12.10
2023-04-08T09:49:19.136Z,12.20
2023-04-08T09:51:53.176Z,12.20
2023-04-08T09:54:23.267Z,12.40
2023-04-08T09:56:59.768Z,12.40
2023-04-08T09:59:30.087Z,12.50
2023-04-08T10:02:01.607Z,12.50
2023-04-08T10:04:29.463Z,12.50
2023-04-08T10:07:02.218Z,12.60
2023-04-08T10:09:29.587Z,12.70
2023-04-08T10:11:56.475Z,12.70
2023-04-08T10:14:23.132Z,12.70
2023-04-08T10:16:50.433Z,12.70
2023-04-08T10:19:37.424Z,12.80
2023-04-08T10:22:05.447Z,12.80
2023-04-08T10:24:34.271Z,12.80
2023-04-08T10:27:02.782Z,12.70
2023-04-08T10:29:29.312Z,12.90
2023-04-08T10:31:57.645Z,12.80
2023-04-08T10:34:26.764Z,12.90
2023-04-08T10:36:55.737Z,13.00
2023-04-08T10:39:23.009Z,12.90
2023-04-08T10:41:51.535Z,13.00
2023-04-08T10:44:19.586Z,12.90
2023-04-08T10:46:47.717Z,13.00
2023-04-08T10:49:15.746Z,13.00
2023-04-08T10:51:44.252Z,13.00
2023-04-08T10:54:13.272Z,12.90
2023-04-08T10:56:47.825Z,13.00
2023-04-08T10:59:16.993Z,13.10
2023-04-08T11:01:45.495Z,13.10
2023-04-08T11:04:13.648Z,13.00
2023-04-08T11:06:42.647Z,12.90
2023-04-08T11:09:09.778Z,12.90
2023-04-08T11:11:37.168Z,12.90
2023-04-08T11:14:04.255Z,12.90
2023-04-08T11:16:31.073Z,13.00
2023-04-08T11:18:58.314Z,13.00
2023-04-08T11:21:25.900Z,13.00
2023-04-08T11:23:53.601Z,13.00
2023-04-08T11:26:21.225Z,13.10
2023-04-08T11:28:52.059Z,13.10
2023-04-08T11:31:21.778Z,13.10
2023-04-08T11:33:53.973Z,13.00
2023-04-08T11:36:21.913Z,13.00
2023-04-08T11:38:48.638Z,13.00
2023-04-08T11:41:16.378Z,13.00
2023-04-08T11:43:54.113Z,13.10
2023-04-08T11:46:20.901Z,13.00
2023-04-08T11:49:00.844Z,13.10
2023-04-08T11:51:28.102Z,13.10
2023-04-08T11:53:56.393Z,13.10
2023-04-08T11:56:27.313Z,13.00
2023-04-08T11:58:54.020Z,13.10
2023-04-08T12:01:21.600Z,13.10
2023-04-08T12:04:02.389Z,13.10
2023-04-08T12:06:29.644Z,13.10
2023-04-08T12:08:56.856Z,13.10
2023-04-08T12:11:24.004Z,13.10
2023-04-08T12:13:51.497Z,13.10
2023-04-08T12:16:19.173Z,13.00
2023-04-08T12:18:46.856Z,13.20
2023-04-08T12:21:13.758Z,13.20
2023-04-08T12:23:40.682Z,13.20
2023-04-08T12:26:08.104Z,13.20
2023-04-08T12:28:35.468Z,13.20
2023-04-08T12:31:02.436Z,13.20
2023-04-08T12:33:29.552Z,13.20
2023-04-08T12:35:58.233Z,13.20
2023-04-08T12:38:27.125Z,13.20
2023-04-08T12:40:54.391Z,13.20
2023-04-08T12:43:22.122Z,13.20
2023-04-08T12:45:49.124Z,13.20
2023-04-08T12:48:15.761Z,13.20
2023-04-08T12:50:42.474Z,13.30
2023-04-08T12:53:09.203Z,13.30
2023-04-08T12:55:36.454Z,13.30
2023-04-08T12:58:03.289Z,13.30
2023-04-08T13:00:29.960Z,13.30
2023-04-08T13:02:56.656Z,13.30
2023-04-08T13:05:39.624Z,13.40
2023-04-08T13:08:09.790Z,13.30
2023-04-08T13:10:36.479Z,13.40
2023-04-08T13:13:03.064Z,13.40
2023-04-08T13:15:29.703Z,13.40
2023-04-08T13:17:56.333Z,13.40
2023-04-08T13:20:25.903Z,13.40
2023-04-08T13:22:53.280Z,13.40
2023-04-08T13:25:20.026Z,13.40
2023-04-08T13:27:46.738Z,13.40
2023-04-08T13:30:13.509Z,13.40
2023-04-08T13:32:40.169Z,13.40
2023-04-08T13:35:07.166Z,13.40
2023-04-08T13:37:33.807Z,13.40
2023-04-08T13:40:00.409Z,13.50
2023-04-08T13:42:27.363Z,13.50
2023-04-08T13:44:53.965Z,13.60
2023-04-08T13:47:20.796Z,13.60
2023-04-08T13:49:47.396Z,13.60
2023-04-08T13:52:13.960Z,13.50
2023-04-08T13:54:40.732Z,13.60
2023-04-08T13:57:07.433Z,13.60
2023-04-08T13:59:34.173Z,13.60
2023-04-08T14:02:00.897Z,13.60
2023-04-08T14:04:27.618Z,13.60
2023-04-08T14:06:58.180Z,13.70
2023-04-08T14:09:24.858Z,13.70
2023-04-08T14:11:51.463Z,13.70
2023-04-08T14:14:18.216Z,13.70
2023-04-08T14:16:45.109Z,13.70
2023-04-08T14:19:11.809Z,13.70
2023-04-08T14:21:38.375Z,13.70
2023-04-08T14:24:05.892Z,13.70
2023-04-08T14:26:35.870Z,13.70
2023-04-08T14:29:06.703Z,13.80
2023-04-08T14:31:34.081Z,13.70
2023-04-08T14:34:01.080Z,13.80
2023-04-08T14:36:28.138Z,13.80
2023-04-08T14:38:55.396Z,13.70
2023-04-08T14:41:22.537Z,13.90
2023-04-08T14:43:49.384Z,13.80
2023-04-08T14:46:17.320Z,13.80
2023-04-08T14:48:44.604Z,14.00
2023-04-08T14:51:11.284Z,13.90
2023-04-08T14:53:37.912Z,13.90
2023-04-08T14:56:05.362Z,13.90
2023-04-08T14:58:32.117Z,14.00
2023-04-08T15:00:58.711Z,14.00
2023-04-08T15:03:25.723Z,14.10
2023-04-08T15:05:53.206Z,14.00
2023-04-08T15:08:19.963Z,14.10
2023-04-08T15:10:46.673Z,14.10
2023-04-08T15:13:13.331Z,14.20
2023-04-08T15:15:39.952Z,14.20
2023-04-08T15:18:06.659Z,14.30
2023-04-08T15:20:33.447Z,14.30
2023-04-08T15:23:00.105Z,14.40
2023-04-08T15:25:26.724Z,14.40
2023-04-08T15:27:53.427Z,14.60
2023-04-08T15:30:24.559Z,14.70
2023-04-08T15:32:52.451Z,14.80
2023-04-08T15:35:19.387Z,14.90
2023-04-08T15:37:46.027Z,14.90
2023-04-08T15:40:12.789Z,14.90
2023-04-08T15:42:39.434Z,14.90
2023-04-08T15:45:06.346Z,14.90
2023-04-08T15:47:35.302Z,14.90
2023-04-08T15:50:05.410Z,15.00
2023-04-08T15:52:32.451Z,15.00
2023-04-08T15:54:59.087Z,15.10
2023-04-08T15:57:26.953Z,15.00
2023-04-08T15:59:53.950Z,15.10
2023-04-08T16:02:20.860Z,15.10
2023-04-08T16:04:47.749Z,15.10
2023-04-08T16:07:14.561Z,15.10
2023-04-08T16:09:41.443Z,15.10
2023-04-08T16:12:08.056Z,15.10
2023-04-08T16:14:34.678Z,15.10
2023-04-08T16:17:01.299Z,15.10
2023-04-08T16:19:28.289Z,15.20
2023-04-08T16:21:54.924Z,15.20
2023-04-08T16:24:21.685Z,15.10
2023-04-08T16:26:48.287Z,15.10
2023-04-08T16:29:14.837Z,15.10
2023-04-08T16:31:44.955Z,15.10
2023-04-08T16:34:11.570Z,15.10
2023-04-08T16:36:38.308Z,15.00
2023-04-08T16:39:04.882Z,15.00
2023-04-08T16:41:31.542Z,15.00
2023-04-08T16:43:58.206Z,15.00
2023-04-08T16:46:24.854Z,15.00
2023-04-08T16:48:51.438Z,14.90
2023-04-08T16:51:18.802Z,14.90
2023-04-08T16:53:45.471Z,14.80
2023-04-08T16:56:16.265Z,14.60
2023-04-08T16:58:43.793Z,14.40
2023-04-08T17:01:11.379Z,14.40
2023-04-08T17:03:38.409Z,14.30
2023-04-08T17:06:13.632Z,14.30
2023-04-08T17:08:44.527Z,14.30
2023-04-08T17:11:13.633Z,14.20
2023-04-08T17:13:42.181Z,14.20
2023-04-08T17:16:16.868Z,14.20
2023-04-08T17:18:44.680Z,14.10
2023-04-08T17:21:12.511Z,14.00
2023-04-08T17:23:39.151Z,14.00
2023-04-08T17:26:07.585Z,13.90
2023-04-08T17:28:35.054Z,13.90
2023-04-08T17:31:02.084Z,13.90
2023-04-08T17:33:28.764Z,13.80
2023-04-08T17:35:55.942Z,13.70
2023-04-08T17:38:22.568Z,13.60
2023-04-08T17:40:49.254Z,13.60
2023-04-08T17:43:15.929Z,13.50
2023-04-08T17:45:42.564Z,13.50
2023-04-08T17:48:09.986Z,13.40
2023-04-08T17:50:36.771Z,13.30
2023-04-08T17:53:04.137Z,13.30
2023-04-08T17:55:31.052Z,13.20
2023-04-08T17:57:57.704Z,13.20
2023-04-08T18:00:24.846Z,13.10
2023-04-08T18:02:51.764Z,13.10
2023-04-08T18:05:18.494Z,13.10
2023-04-08T18:07:45.535Z,13.10
2023-04-08T18:10:12.318Z,13.00
2023-04-08T18:12:38.938Z,13.10
2023-04-08T18:15:06.151Z,13.20
2023-04-08T18:17:34.377Z,13.30
2023-04-08T18:20:00.942Z,13.30
2023-04-08T18:22:27.518Z,13.30
2023-04-08T18:24:54.104Z,13.30
2023-04-08T18:27:20.714Z,13.20
2023-04-08T18:29:47.441Z,13.20
2023-04-08T18:32:14.177Z,13.20
2023-04-08T18:34:41.679Z,13.20
2023-04-08T18:37:08.310Z,13.20
2023-04-08T18:39:34.995Z,13.10
2023-04-08T18:42:01.673Z,13.10
2023-04-08T18:44:28.612Z,13.10
2023-04-08T18:46:56.417Z,13.10
2023-04-08T18:49:23.344Z,13.00
2023-04-08T18:52:01.229Z,13.00
2023-04-08T18:54:28.942Z,12.90
2023-04-08T18:56:55.572Z,12.90
2023-04-08T18:59:23.385Z,12.90
2023-04-08T19:01:50.105Z,12.80
2023-04-08T19:04:18.315Z,12.80
2023-04-08T19:06:44.983Z,12.80
2023-04-08T19:09:11.678Z,12.70
2023-04-08T19:11:38.338Z,12.70
2023-04-08T19:14:05.148Z,12.70
2023-04-08T19:16:31.830Z,12.70
2023-04-08T19:18:58.629Z,12.70
2023-04-08T19:21:25.277Z,12.60
2023-04-08T19:23:52.036Z,12.60
2023-04-08T19:26:18.966Z,12.60
2023-04-08T19:28:46.318Z,12.60
2023-04-08T19:31:20.545Z,12.50
2023-04-08T19:33:47.390Z,12.50
2023-04-08T19:36:16.266Z,12.50
2023-04-08T19:38:42.848Z,12.40
2023-04-08T19:41:09.504Z,12.40
2023-04-08T19:43:36.144Z,12.40
2023-04-08T19:46:03.674Z,12.40
2023-04-08T19:48:31.122Z,12.30
2023-04-08T19:50:57.836Z,12.30
2023-04-08T19:53:24.414Z,12.30
2023-04-08T19:55:58.931Z,12.30
2023-04-08T19:58:25.786Z,12.20
2023-04-08T20:00:52.656Z,12.20
2023-04-08T20:03:19.388Z,12.20
2023-04-08T20:05:46.881Z,12.20
2023-04-08T20:08:13.493Z,12.20
2023-04-08T20:10:40.180Z,12.10
2023-04-08T20:13:06.798Z,12.10
2023-04-08T20:15:33.439Z,12.10
2023-04-08T20:18:00.051Z,12.10
2023-04-08T20:20:28.281Z,12.00
2023-04-08T20:22:56.156Z,12.00
2023-04-08T20:25:22.887Z,12.00
2023-04-08T20:27:49.520Z,12.00
2023-04-08T20:30:16.710Z,11.90
2023-04-08T20:32:43.341Z,11.90
2023-04-08T20:35:10.133Z,11.90
2023-04-08T20:37:37.004Z,11.90
2023-04-08T20:40:04.115Z,11.80
2023-04-08T20:42:30.879Z,11.80
2023-04-08T20:44:57.470Z,11.80
2023-04-08T20:47:24.961Z,11.80
2023-04-08T20:49:53.336Z,11.80
2023-04-08T20:52:20.079Z,11.70
2023-04-08T20:54:46.689Z,11.70
2023-04-08T20:57:13.398Z,11.70
2023-04-08T20:59:40.063Z,11.70
2023-04-08T21:02:07.740Z,11.60
2023-04-08T21:04:34.402Z,11.60
2023-04-08T21:07:01.122Z,11.60
2023-04-08T21:09:27.923Z,11.60
2023-04-08T21:11:54.563Z,11.60
2023-04-08T21:14:21.258Z,11.60
2023-04-08T21:16:51.709Z,11.50
2023-04-08T21:19:18.421Z,11.50
2023-04-08T21:21:46.484Z,11.50
2023-04-08T21:24:13.371Z,11.50
2023-04-08T21:26:42.940Z,11.40
2023-04-08T21:29:09.673Z,11.40
2023-04-08T21:31:36.447Z,11.40
2023-04-08T21:34:03.099Z,11.40
2023-04-08T21:36:30.989Z,11.30
2023-04-08T21:38:57.675Z,11.30
2023-04-08T21:41:24.496Z,11.30
2023-04-08T21:43:51.153Z,11.30
2023-04-08T21:46:18.012Z,11.30
2023-04-08T21:48:44.680Z,11.20
2023-04-08T21:51:18.133Z,11.20
2023-04-08T21:53:45.655Z,11.20
2023-04-08T21:56:14.105Z,11.20
2023-04-08T21:58:40.830Z,11.10
2023-04-08T22:01:07.980Z,11.10
2023-04-08T22:03:34.800Z,11.10
2023-04-08T22:06:01.672Z,11.10
2023-04-08T22:08:28.503Z,11.10
2023-04-08T22:10:55.186Z,11.00
2023-04-08T22:13:21.912Z,11.00
2023-04-08T22:15:48.593Z,11.00
2023-04-08T22:18:15.599Z,11.00
2023-04-08T22:20:42.267Z,11.00
2023-04-08T22:23:08.935Z,10.90
2023-04-08T22:25:35.570Z,10.90
2023-04-08T22:28:02.210Z,10.90
2023-04-08T22:30:29.951Z,10.90
2023-04-08T22:32:56.710Z,10.90
2023-04-08T22:35:23.441Z,10.80
2023-04-08T22:37:50.038Z,10.80
2023-04-08T22:40:16.643Z,10.80
2023-04-08T22:42:43.263Z,10.80
2023-04-08T22:45:10.356Z,10.70
2023-04-08T22:47:37.547Z,10.70
2023-04-08T22:50:04.735Z,10.70
2023-04-08T22:52:31.361Z,10.70
2023-04-08T22:54:58.045Z,10.70
2023-04-08T22:57:24.754Z,10.60
2023-04-08T22:59:51.319Z,10.60
2023-04-08T23:02:18.196Z,10.60
2023-04-08T23:04:44.963Z,10.60
2023-04-08T23:07:11.634Z,10.60
2023-04-08T23:09:38.322Z,10.60
2023-04-08T23:12:05.032Z,10.60
2023-04-08T23:14:31.811Z,10.60
2023-04-08T23:16:58.426Z,10.50
2023-04-08T23:19:25.082Z,10.50
2023-04-08T23:21:51.780Z,10.50
2023-04-08T23:24:19.678Z,10.50
2023-04-08T23:26:46.299Z,10.50
2023-04-08T23:29:12.997Z,10.40
2023-04-08T23:31:39.844Z,10.40
2023-04-08T23:34:06.785Z,10.40
2023-04-08T23:36:33.408Z,10.40
2023-04-08T23:39:00.023Z,10.40
2023-04-08T23:41:28.481Z,10.40
2023-04-08T23:43:55.193Z,10.40
2023-04-08T23:46:21.879Z,10.40
2023-04-08T23:48:48.585Z,10.30
2023-04-08T23:51:15.561Z,10.30
2023-04-08T23:53:42.380Z,10.30
2023-04-08T23:56:09.917Z,10.30
2023-04-08T23:58:36.697Z,10.30
